TimeMST,TemperatureF,Dew PointF,Humidity,Sea Level PressureIn,VisibilityMPH,Wind Direction,Wind SpeedMPH,Gust SpeedMPH,PrecipitationIn,Events,Conditions,WindDirDegrees,DateUTC
12:53 AM,-14.1,-18.9,79,30.26,10.0,NE,3.5,-,N/A,,Clear,40,2013-01-13 07:53:00
1:53 AM,-11.9,-16.1,82,30.25,10.0,North,3.5,-,N/A,,Scattered Clouds,360,2013-01-13 08:53:00
2:53 AM,-9.9,-15.0,78,30.25,10.0,Calm,Calm,-,N/A,,Overcast,0,2013-01-13 09:53:00
3:53 AM,-9.0,-14.1,79,30.25,10.0,Calm,Calm,-,N/A,,Overcast,0,2013-01-13 10:53:00
4:53 AM,-6.0,-11.0,79,30.24,10.0,NE,3.5,-,N/A,,Overcast,50,2013-01-13 11:53:00
5:53 AM,-4.0,-9.0,79,30.24,10.0,East,3.5,-,N/A,,Overcast,90,2013-01-13 12:53:00
6:53 AM,-2.9,-8.0,79,30.27,5.0,East,3.5,-,0.00,Snow,Light Snow,80,2013-01-13 13:53:00
7:46 AM,-2.2,-5.8,85,29.93,2.5,East,3.5,-,0.00,Snow,Light Snow,80,2013-01-13 14:46:00
7:53 AM,-0.9,-6.0,79,30.32,2.5,NE,3.5,-,0.00,Snow,Light Snow,50,2013-01-13 14:53:00
8:03 AM,-0.4,-5.8,78,29.93,3.0,Calm,Calm,-,0.00,Snow,Light Snow,0,2013-01-13 15:03:00
8:08 AM,-0.4,-5.8,78,29.93,2.5,NE,4.6,-,0.00,Snow,Light Snow,50,2013-01-13 15:08:00
8:23 AM,-0.4,-4.0,85,29.93,1.5,East,3.5,-,0.00,Snow,Light Snow,100,2013-01-13 15:23:00
8:34 AM,-0.4,-4.0,85,29.94,2.5,Calm,Calm,-,0.00,Snow,Light Snow,0,2013-01-13 15:34:00
8:53 AM,1.0,-2.9,83,30.32,1.2,Calm,Calm,-,0.00,Snow,Light Snow,0,2013-01-13 15:53:00
9:53 AM,5.0,3.0,92,30.32,1.0,Calm,Calm,-,0.00,Snow,Light Snow,0,2013-01-13 16:53:00
10:07 AM,6.8,1.4,79,29.95,1.5,Calm,Calm,-,0.00,Snow,Light Snow,0,2013-01-13 17:07:00
10:17 AM,6.8,1.4,79,29.94,2.5,NE,3.5,-,0.00,Snow,Light Snow,50,2013-01-13 17:17:00
10:34 AM,6.8,1.4,79,29.94,3.0,NE,3.5,-,0.00,Snow,Light Snow,50,2013-01-13 17:34:00
10:53 AM,7.0,1.9,80,30.29,3.0,NE,3.5,-,0.00,Snow,Light Snow,50,2013-01-13 17:53:00
11:10 AM,8.6,3.2,79,29.93,2.5,Calm,Calm,-,0.00,Snow,Light Snow,0,2013-01-13 18:10:00
11:32 AM,10.4,5.0,79,29.92,1.5,ENE,3.5,-,0.00,Snow,Light Snow,60,2013-01-13 18:32:00
11:42 AM,12.2,5.0,73,29.91,2.5,East,6.9,-,0.00,Snow,Light Snow,80,2013-01-13 18:42:00
11:49 AM,10.4,3.2,73,29.91,3.0,Variable,5.8,-,0.00,Snow,Light Snow,0,2013-01-13 18:49:00
11:53 AM,10.9,3.9,73,30.31,4.0,East,4.6,-,0.00,Snow,Light Snow,80,2013-01-13 18:53:00
12:53 PM,12.0,3.9,70,30.25,10.0,ENE,5.8,-,0.00,,Overcast,70,2013-01-13 19:53:00
1:53 PM,14.0,6.1,71,30.21,5.0,NE,4.6,-,0.00,Snow,Light Snow,40,2013-01-13 20:53:00
2:16 PM,14.0,6.8,73,29.87,7.0,NE,5.8,-,0.00,Snow,Light Snow,40,2013-01-13 21:16:00
2:53 PM,14.0,6.1,71,30.21,8.0,NNE,4.6,-,0.00,,Overcast,30,2013-01-13 21:53:00
3:03 PM,14.0,6.8,73,29.87,10.0,NE,5.8,-,N/A,,Overcast,40,2013-01-13 22:03:00
3:53 PM,12.9,5.0,71,30.21,10.0,ENE,3.5,-,N/A,,Mostly Cloudy,70,2013-01-13 22:53:00
4:53 PM,12.0,3.9,70,30.21,10.0,NE,3.5,-,N/A,,Overcast,40,2013-01-13 23:53:00
5:53 PM,10.9,3.9,73,30.21,10.0,Calm,Calm,-,N/A,,Overcast,0,2013-01-14 00:53:00
6:53 PM,10.9,3.9,73,30.21,10.0,Calm,Calm,-,N/A,,Overcast,0,2013-01-14 01:53:00
7:53 PM,12.9,5.0,71,30.19,10.0,North,6.9,-,N/A,,Overcast,10,2013-01-14 02:53:00
8:53 PM,12.0,6.1,77,30.18,3.0,ENE,3.5,-,0.00,Snow,Light Snow,70,2013-01-14 03:53:00
9:02 PM,10.4,6.8,85,29.88,3.0,Calm,Calm,-,0.00,Snow,Light Snow,0,2013-01-14 04:02:00
9:21 PM,10.4,6.8,85,29.88,3.0,NE,3.5,-,0.00,Snow,Light Snow,50,2013-01-14 04:21:00
9:33 PM,8.6,6.8,92,29.88,5.0,Calm,Calm,-,0.00,Snow,Light Snow,0,2013-01-14 04:33:00
9:46 PM,10.4,6.8,85,29.89,10.0,Calm,Calm,-,0.00,,Mostly Cloudy,0,2013-01-14 04:46:00
9:53 PM,10.0,7.0,87,30.17,10.0,North,3.5,-,0.00,,Mostly Cloudy,10,2013-01-14 04:53:00
10:53 PM,6.1,1.9,83,30.18,10.0,Calm,Calm,-,N/A,,Clear,0,2013-01-14 05:53:00
11:53 PM,7.0,3.9,87,30.16,10.0,Calm,Calm,-,N/A,,Overcast,0,2013-01-14 06:53:00